Ambridge, Pennsylvania
Current Conditions -  °F | °C
As of 12:51 PM on Thursday 18 Dec 2014 (Local Time) from KPIT Reporting Station
Light Snow Light Snow  
Wind Chill: -7°   Ceiling: 2500
Heat Index: -2°   Visibility: 6mi
Dew Point: -6°   Wind: 10mph
Humidity: 75%   Direction: 280°W
Pressure: 30.16"   Gusts: NA
Location:  40.59°N, 80.23°W
Report Text: KPIT 181751Z 28009KT 6SM -SN OVC025 M02/M06 A3016 RMK AO2 SLP234 P0000 60000 T10171056 11017 21022 58011
Loading
Personal Weather Stations






























Interactive Weather Map New forecast layout! Learn more

10-Day Weather Forecast

Advertisements
Track Severe Weather on mobile